createdAt,value
2018-10-21T00:01:49.030Z,87.20
2018-10-21T00:04:17.910Z,86.80
2018-10-21T00:06:46.631Z,85.50
2018-10-21T00:09:15.476Z,85.50
2018-10-21T00:11:44.172Z,85.40
2018-10-21T00:14:12.909Z,85.80
2018-10-21T00:16:41.645Z,86.00
2018-10-21T00:19:10.330Z,86.00
2018-10-21T00:21:39.072Z,85.80
2018-10-21T00:24:07.779Z,86.00
2018-10-21T00:26:36.512Z,86.00
2018-10-21T00:29:05.580Z,86.60
2018-10-21T00:31:34.413Z,87.60
2018-10-21T00:34:03.274Z,87.10
2018-10-21T00:36:32.178Z,86.30
2018-10-21T00:39:01.081Z,86.30
2018-10-21T00:41:29.815Z,86.40
2018-10-21T00:43:58.499Z,86.30
2018-10-21T00:46:27.231Z,86.20
2018-10-21T00:48:55.954Z,86.00
2018-10-21T00:51:24.711Z,85.60
2018-10-21T00:53:53.397Z,85.60
2018-10-21T00:56:22.116Z,85.70
2018-10-21T00:58:50.828Z,85.20
2018-10-21T01:01:19.518Z,85.60
2018-10-21T01:03:48.228Z,85.80
2018-10-21T01:06:16.962Z,86.10
2018-10-21T01:08:45.676Z,86.30
2018-10-21T01:11:14.380Z,86.60
2018-10-21T01:13:43.090Z,86.70
2018-10-21T01:16:11.811Z,87.00
2018-10-21T01:18:40.546Z,86.70
2018-10-21T01:21:09.461Z,86.90
2018-10-21T01:23:38.306Z,86.30
2018-10-21T01:26:07.221Z,85.80
2018-10-21T01:28:35.955Z,85.80
2018-10-21T01:31:05.116Z,85.50
2018-10-21T01:33:33.807Z,85.30
2018-10-21T01:36:02.530Z,85.20
2018-10-21T01:38:31.273Z,85.40
2018-10-21T01:41:00.406Z,85.40
2018-10-21T01:43:33.082Z,85.00
2018-10-21T01:46:02.519Z,85.40
2018-10-21T01:48:32.124Z,84.20
2018-10-21T01:51:01.126Z,84.00
2018-10-21T01:53:29.792Z,83.50
2018-10-21T01:55:58.530Z,84.10
2018-10-21T01:58:27.221Z,84.30
2018-10-21T02:00:55.950Z,83.90
2018-10-21T02:03:24.675Z,84.00
2018-10-21T02:05:53.388Z,84.90
2018-10-21T02:08:22.079Z,85.70
2018-10-21T02:10:50.830Z,85.90
2018-10-21T02:13:19.552Z,85.80
2018-10-21T02:15:48.298Z,85.60
2018-10-21T02:18:17.093Z,85.80
2018-10-21T02:20:45.846Z,86.00
2018-10-21T02:23:14.606Z,86.30
2018-10-21T02:25:43.357Z,87.90
2018-10-21T02:28:12.110Z,89.20
2018-10-21T02:30:40.815Z,88.00
2018-10-21T02:33:09.596Z,85.80
2018-10-21T02:35:38.288Z,85.20
2018-10-21T02:38:06.977Z,84.90
2018-10-21T02:41:45.764Z,85.20
2018-10-21T02:44:15.662Z,85.60
2018-10-21T02:46:45.071Z,86.30
2018-10-21T02:49:14.347Z,86.50
2018-10-21T02:51:43.105Z,86.30
2018-10-21T02:54:11.937Z,86.70
2018-10-21T02:56:40.632Z,86.40
2018-10-21T02:59:09.332Z,86.50
2018-10-21T03:01:38.022Z,86.10
2018-10-21T03:04:06.713Z,85.90
2018-10-21T03:06:35.392Z,85.60
2018-10-21T03:09:05.404Z,85.70
2018-10-21T03:11:34.128Z,86.00
2018-10-21T03:14:03.199Z,86.20
2018-10-21T03:16:31.916Z,86.00
2018-10-21T03:19:00.633Z,86.20
2018-10-21T03:21:29.383Z,85.40
2018-10-21T03:23:58.167Z,85.60
2018-10-21T03:26:26.885Z,85.60
2018-10-21T03:28:55.612Z,85.30
2018-10-21T03:31:24.314Z,85.40
2018-10-21T03:33:53.167Z,86.30
2018-10-21T03:36:21.674Z,86.60
2018-10-21T03:38:50.368Z,86.30
2018-10-21T03:41:19.080Z,85.70
2018-10-21T03:43:47.781Z,84.70
2018-10-21T03:46:16.963Z,83.80
2018-10-21T03:48:45.611Z,83.90
2018-10-21T03:51:14.650Z,83.90
2018-10-21T03:53:43.412Z,84.40
2018-10-21T03:56:12.225Z,84.50
2018-10-21T03:58:40.911Z,84.10
2018-10-21T04:01:09.808Z,84.10
2018-10-21T04:03:38.511Z,84.70
2018-10-21T04:06:07.233Z,85.10
2018-10-21T04:11:11.958Z,85.60
2018-10-21T04:13:40.720Z,85.90
2018-10-21T04:16:09.506Z,86.10
2018-10-21T04:18:38.254Z,86.30
2018-10-21T04:21:07.089Z,86.50
2018-10-21T04:23:35.945Z,86.60
2018-10-21T04:26:04.716Z,86.90
2018-10-21T04:28:33.466Z,87.20
2018-10-21T04:31:02.165Z,87.30
2018-10-21T04:33:45.423Z,87.60
2018-10-21T04:36:15.760Z,87.50
2018-10-21T04:38:55.963Z,87.70
2018-10-21T04:41:24.690Z,88.00
2018-10-21T04:43:53.391Z,88.40
2018-10-21T04:46:22.087Z,88.40
2018-10-21T04:48:50.786Z,88.40
2018-10-21T04:51:19.478Z,88.30
2018-10-21T04:53:48.221Z,87.90
2018-10-21T04:56:16.904Z,87.60
2018-10-21T04:58:45.639Z,87.50
2018-10-21T05:01:14.611Z,86.90
2018-10-21T05:03:43.406Z,86.70
2018-10-21T05:06:12.272Z,86.10
2018-10-21T05:08:41.514Z,86.30
2018-10-21T05:11:10.791Z,86.50
2018-10-21T05:13:39.494Z,86.10
2018-10-21T05:16:08.261Z,85.20
2018-10-21T05:18:36.883Z,84.70
2018-10-21T05:21:05.615Z,84.20
2018-10-21T05:23:34.333Z,84.10
2018-10-21T05:26:03.009Z,83.20
2018-10-21T05:28:31.761Z,84.20
2018-10-21T05:31:00.481Z,83.70
2018-10-21T05:33:29.183Z,84.20
2018-10-21T05:35:57.864Z,83.90
2018-10-21T05:38:26.815Z,83.90
2018-10-21T05:40:55.493Z,84.60
2018-10-21T05:43:24.476Z,85.30
2018-10-21T05:45:53.198Z,85.50
2018-10-21T05:48:22.004Z,85.90
2018-10-21T05:50:50.757Z,86.40
2018-10-21T05:53:19.947Z,85.40
2018-10-21T05:55:49.264Z,85.20
2018-10-21T05:58:18.053Z,84.00
2018-10-21T06:00:46.755Z,83.30
2018-10-21T06:03:15.445Z,83.00
2018-10-21T06:05:46.389Z,82.70
2018-10-21T06:08:15.077Z,82.10
2018-10-21T06:10:44.509Z,81.70
2018-10-21T06:13:13.519Z,80.90
2018-10-21T06:15:42.289Z,80.10
2018-10-21T06:18:18.028Z,78.40
2018-10-21T06:20:51.035Z,74.80
2018-10-21T06:23:19.834Z,70.80
2018-10-21T06:25:48.519Z,66.60
2018-10-21T06:28:17.204Z,62.10
2018-10-21T06:30:45.970Z,59.30
2018-10-21T06:33:14.806Z,57.40
2018-10-21T06:35:44.301Z,55.70
2018-10-21T06:38:15.781Z,54.20
2018-10-21T06:40:45.073Z,52.10
2018-10-21T06:43:14.382Z,49.90
2018-10-21T06:48:19.820Z,45.30
2018-10-21T06:50:48.538Z,42.80
2018-10-21T06:53:17.244Z,40.90
2018-10-21T06:55:45.978Z,39.50
2018-10-21T06:58:14.659Z,37.80
2018-10-21T07:00:43.391Z,36.10
2018-10-21T07:03:12.168Z,34.70
2018-10-21T07:06:16.628Z,33.90
2018-10-21T07:08:45.819Z,32.90
2018-10-21T07:11:14.744Z,31.80
2018-10-21T07:13:43.585Z,31.60
2018-10-21T07:16:12.738Z,31.20
2018-10-21T07:18:42.212Z,30.60
2018-10-21T07:21:10.986Z,30.50
2018-10-21T07:23:39.917Z,30.30
2018-10-21T07:26:08.616Z,30.30
2018-10-21T07:28:37.438Z,29.50
2018-10-21T07:31:06.397Z,28.80
2018-10-21T07:33:35.387Z,28.70
2018-10-21T07:36:04.393Z,28.50
2018-10-21T07:38:33.099Z,28.40
2018-10-21T07:41:01.822Z,28.80
2018-10-21T07:43:30.598Z,29.50
2018-10-21T07:45:59.402Z,30.90
2018-10-21T07:48:28.077Z,32.90
2018-10-21T07:50:56.805Z,35.10
2018-10-21T07:53:25.567Z,37.30
2018-10-21T07:55:54.389Z,39.60
2018-10-21T07:58:23.113Z,41.30
2018-10-21T08:00:51.967Z,43.30
2018-10-21T08:03:20.681Z,44.90
2018-10-21T08:06:01.120Z,46.40
2018-10-21T08:08:29.808Z,47.60
2018-10-21T08:10:58.594Z,48.80
2018-10-21T08:13:27.917Z,48.90
2018-10-21T08:15:56.645Z,49.50
2018-10-21T08:18:25.470Z,50.40
2018-10-21T08:20:54.222Z,51.40
2018-10-21T08:23:23.041Z,51.90
2018-10-21T08:25:51.745Z,53.00
2018-10-21T08:28:20.448Z,53.80
2018-10-21T08:30:49.275Z,54.00
2018-10-21T08:33:18.824Z,54.30
2018-10-21T08:35:47.820Z,54.80
2018-10-21T08:38:16.598Z,55.20
2018-10-21T08:40:45.407Z,55.60
2018-10-21T08:43:14.132Z,56.20
2018-10-21T08:45:42.922Z,57.30
2018-10-21T08:48:12.364Z,58.20
2018-10-21T08:50:45.821Z,58.70
2018-10-21T08:53:14.625Z,59.30
2018-10-21T08:55:44.956Z,60.80
2018-10-21T08:58:13.929Z,61.80
2018-10-21T09:00:42.924Z,62.00
2018-10-21T09:03:11.833Z,63.00
2018-10-21T09:05:40.626Z,64.10
2018-10-21T09:08:11.504Z,64.50
2018-10-21T09:10:40.396Z,63.90
2018-10-21T09:15:44.406Z,63.60
2018-10-21T09:18:14.110Z,63.30
2018-10-21T09:20:43.639Z,63.20
2018-10-21T09:23:13.548Z,63.70
2018-10-21T09:25:42.306Z,65.80
2018-10-21T09:28:13.521Z,65.80
2018-10-21T09:30:42.621Z,65.70
2018-10-21T09:33:11.381Z,65.30
2018-10-21T09:35:40.560Z,64.40
2018-10-21T09:38:09.283Z,63.30
2018-10-21T09:40:38.040Z,61.90
2018-10-21T09:43:06.795Z,60.80
2018-10-21T09:45:35.468Z,59.80
2018-10-21T09:48:04.784Z,61.00
2018-10-21T09:50:33.588Z,59.70
2018-10-21T09:53:03.500Z,59.70
2018-10-21T09:55:32.230Z,60.10
2018-10-21T09:58:01.114Z,59.90
2018-10-21T10:00:35.382Z,59.40
2018-10-21T10:03:05.655Z,59.80
2018-10-21T10:05:34.395Z,59.30
2018-10-21T10:08:03.196Z,58.60
2018-10-21T10:10:32.152Z,58.20
2018-10-21T10:13:00.964Z,58.20
2018-10-21T10:15:29.639Z,58.90
2018-10-21T10:17:58.361Z,58.40
2018-10-21T10:20:28.204Z,58.10
2018-10-21T10:22:56.934Z,57.70
2018-10-21T10:25:25.694Z,58.00
2018-10-21T10:27:54.467Z,58.40
2018-10-21T10:30:23.265Z,58.20
2018-10-21T10:32:52.301Z,57.70
2018-10-21T10:35:21.115Z,58.00
2018-10-21T10:37:49.938Z,57.70
2018-10-21T10:40:20.155Z,57.60
2018-10-21T10:42:48.972Z,57.70
2018-10-21T10:45:17.711Z,57.90
2018-10-21T10:47:46.455Z,58.70
2018-10-21T10:50:15.203Z,58.90
2018-10-21T10:52:43.994Z,58.10
2018-10-21T10:55:12.843Z,58.30
2018-10-21T10:57:41.560Z,57.80
2018-10-21T11:00:11.465Z,57.50
2018-10-21T11:02:40.637Z,57.10
2018-10-21T11:05:10.220Z,58.00
2018-10-21T11:07:39.679Z,58.50
2018-10-21T11:10:09.224Z,58.50
2018-10-21T11:12:37.945Z,58.40
2018-10-21T11:15:07.361Z,57.90
2018-10-21T11:17:36.323Z,58.60
2018-10-21T11:20:05.511Z,59.00
2018-10-21T11:22:34.280Z,59.40
2018-10-21T11:25:03.188Z,59.10
2018-10-21T11:27:31.843Z,59.00
2018-10-21T11:30:00.584Z,58.40
2018-10-21T11:32:29.345Z,58.60
2018-10-21T11:34:58.000Z,58.00
2018-10-21T11:37:26.954Z,57.80
2018-10-21T11:39:55.601Z,58.30
2018-10-21T11:42:24.320Z,58.50
2018-10-21T11:44:53.055Z,59.10
2018-10-21T11:47:22.021Z,59.80
2018-10-21T11:49:50.885Z,60.10
2018-10-21T11:52:19.771Z,60.90
2018-10-21T11:54:48.536Z,61.60
2018-10-21T11:57:17.445Z,61.20
2018-10-21T11:59:46.579Z,59.60
2018-10-21T12:02:15.396Z,57.90
2018-10-21T12:04:44.106Z,58.20
2018-10-21T12:07:12.947Z,58.50
2018-10-21T12:09:41.765Z,58.70
2018-10-21T12:12:10.485Z,58.40
2018-10-21T12:14:39.238Z,57.90
2018-10-21T12:17:08.081Z,55.50
2018-10-21T12:19:36.853Z,54.40
2018-10-21T12:22:05.745Z,53.10
2018-10-21T12:24:34.596Z,52.60
2018-10-21T12:27:03.482Z,52.70
2018-10-21T12:29:32.193Z,52.40
2018-10-21T12:32:01.092Z,53.20
2018-10-21T12:34:29.903Z,53.80
2018-10-21T12:36:58.847Z,53.90
2018-10-21T12:39:27.546Z,54.10
2018-10-21T12:41:56.380Z,53.50
2018-10-21T12:44:25.338Z,53.40
2018-10-21T12:46:55.893Z,53.30
2018-10-21T12:49:24.980Z,53.90
2018-10-21T12:51:53.694Z,53.50
2018-10-21T12:54:22.485Z,54.00
2018-10-21T12:56:51.261Z,54.40
2018-10-21T12:59:19.963Z,54.60
2018-10-21T13:01:48.735Z,54.70
2018-10-21T13:04:17.630Z,54.70
2018-10-21T13:06:46.268Z,54.70
2018-10-21T13:09:15.020Z,54.70
2018-10-21T13:11:43.728Z,53.90
2018-10-21T13:14:12.457Z,53.30
2018-10-21T13:16:41.184Z,53.30
2018-10-21T13:19:09.937Z,53.30
2018-10-21T13:21:38.665Z,54.30
2018-10-21T13:24:07.400Z,54.20
2018-10-21T13:26:36.124Z,54.30
2018-10-21T13:29:04.977Z,54.10
2018-10-21T13:31:33.708Z,53.60
2018-10-21T13:34:02.598Z,53.80
2018-10-21T13:36:31.287Z,53.80
2018-10-21T13:39:00.029Z,53.50
2018-10-21T13:41:28.729Z,53.50
2018-10-21T13:43:57.518Z,53.40
2018-10-21T13:46:26.324Z,53.20
2018-10-21T13:48:55.013Z,54.90
2018-10-21T13:51:23.728Z,55.40
2018-10-21T13:53:52.464Z,54.30
2018-10-21T13:56:21.198Z,54.50
2018-10-21T13:58:49.902Z,53.60
2018-10-21T14:01:18.705Z,53.30
2018-10-21T14:03:47.961Z,52.70
2018-10-21T14:06:16.665Z,53.10
2018-10-21T14:08:45.896Z,53.00
2018-10-21T14:11:14.631Z,53.20
2018-10-21T14:13:44.414Z,54.00
2018-10-21T14:16:13.178Z,54.30
2018-10-21T14:18:41.921Z,54.30
2018-10-21T14:21:10.688Z,54.80
2018-10-21T14:23:39.402Z,55.00
2018-10-21T14:26:08.187Z,55.20
2018-10-21T14:28:36.941Z,55.50
2018-10-21T14:31:06.096Z,55.60
2018-10-21T14:33:34.852Z,55.70
2018-10-21T14:36:03.645Z,55.50
2018-10-21T14:38:32.409Z,55.70
2018-10-21T14:41:01.061Z,55.90
2018-10-21T14:43:29.783Z,56.30
2018-10-21T14:45:58.716Z,56.70
2018-10-21T14:48:27.594Z,57.40
2018-10-21T14:50:56.371Z,57.60
2018-10-21T14:53:25.136Z,57.80
2018-10-21T14:55:53.866Z,57.90
2018-10-21T14:58:22.652Z,57.90
2018-10-21T15:00:51.504Z,58.20
2018-10-21T15:03:20.272Z,58.10
2018-10-21T15:05:49.084Z,58.40
2018-10-21T15:08:17.926Z,59.20
2018-10-21T15:10:46.971Z,60.10
2018-10-21T15:13:15.681Z,61.10
2018-10-21T15:15:44.481Z,61.50
2018-10-21T15:18:13.298Z,62.10
2018-10-21T15:20:41.937Z,62.90
2018-10-21T15:23:10.777Z,62.90
2018-10-21T15:25:39.612Z,63.20
2018-10-21T15:28:08.464Z,63.30
2018-10-21T15:30:37.204Z,63.70
2018-10-21T15:33:06.279Z,64.30
2018-10-21T15:35:35.562Z,64.30
2018-10-21T15:38:04.750Z,64.40
2018-10-21T15:40:33.616Z,64.70
2018-10-21T15:43:02.481Z,65.60
2018-10-21T15:45:31.483Z,65.30
2018-10-21T15:48:00.231Z,65.70
2018-10-21T15:50:29.145Z,65.90
2018-10-21T15:52:57.905Z,66.50
2018-10-21T15:55:26.710Z,66.70
2018-10-21T15:57:55.596Z,66.80
2018-10-21T16:00:24.386Z,66.70
2018-10-21T16:02:53.100Z,67.00
2018-10-21T16:05:21.822Z,67.20
2018-10-21T16:07:50.612Z,67.30
2018-10-21T16:10:19.350Z,67.30
2018-10-21T16:12:48.065Z,67.50
2018-10-21T16:15:17.111Z,67.90
2018-10-21T16:17:46.820Z,67.80
2018-10-21T16:20:15.693Z,67.70
2018-10-21T16:22:45.011Z,67.70
2018-10-21T16:25:15.228Z,67.90
2018-10-21T16:27:44.670Z,68.10
2018-10-21T16:30:16.437Z,67.90
2018-10-21T16:32:45.881Z,67.90
2018-10-21T16:35:15.097Z,67.90
2018-10-21T16:37:44.289Z,68.70
2018-10-21T16:40:15.021Z,68.40
2018-10-21T16:42:44.445Z,68.40
2018-10-21T16:45:14.841Z,68.50
2018-10-21T16:47:49.175Z,68.70
2018-10-21T16:50:19.715Z,69.50
2018-10-21T16:53:01.150Z,69.30
2018-10-21T16:55:33.191Z,69.10
2018-10-21T16:58:01.899Z,69.00
2018-10-21T17:00:31.069Z,68.90
2018-10-21T17:02:59.933Z,69.50
2018-10-21T17:05:28.827Z,69.10
2018-10-21T17:07:58.057Z,70.40
2018-10-21T17:10:27.296Z,69.80
2018-10-21T17:12:55.860Z,69.70
2018-10-21T17:15:25.533Z,69.70
2018-10-21T17:17:54.396Z,70.30
2018-10-21T17:20:23.306Z,69.70
2018-10-21T17:22:52.279Z,69.70
2018-10-21T17:25:21.784Z,69.70
2018-10-21T17:27:51.258Z,69.80
2018-10-21T17:30:20.380Z,69.80
2018-10-21T17:33:09.864Z,69.90
2018-10-21T17:36:16.051Z,70.00
2018-10-21T17:39:13.731Z,70.60
2018-10-21T17:41:45.815Z,70.00
2018-10-21T17:44:17.651Z,70.50
2018-10-21T17:46:47.249Z,70.60
2018-10-21T17:49:16.157Z,71.30
2018-10-21T17:51:45.640Z,71.30
2018-10-21T17:54:14.590Z,70.60
2018-10-21T17:56:48.769Z,71.20
2018-10-21T17:59:18.483Z,71.10
2018-10-21T18:01:47.197Z,71.30
2018-10-21T18:04:16.226Z,71.40
2018-10-21T18:06:44.944Z,71.50
2018-10-21T18:09:14.126Z,72.10
2018-10-21T18:11:43.338Z,71.90
2018-10-21T18:14:12.139Z,71.90
2018-10-21T18:16:40.900Z,72.20
2018-10-21T18:19:09.826Z,72.10
2018-10-21T18:21:38.528Z,72.10
2018-10-21T18:24:07.534Z,72.20
2018-10-21T18:26:36.361Z,72.50
2018-10-21T18:29:05.918Z,72.30
2018-10-21T18:31:34.660Z,72.30
2018-10-21T18:34:03.420Z,72.40
2018-10-21T18:36:32.274Z,72.70
2018-10-21T18:39:00.988Z,72.70
2018-10-21T18:41:29.747Z,72.80
2018-10-21T18:43:58.483Z,72.90
2018-10-21T18:46:27.255Z,73.10
2018-10-21T18:48:56.342Z,72.90
2018-10-21T18:51:25.277Z,73.10
2018-10-21T18:53:54.120Z,73.40
2018-10-21T18:56:23.536Z,73.30
2018-10-21T18:58:52.335Z,73.30
2018-10-21T19:01:21.169Z,73.30
2018-10-21T19:03:50.073Z,73.10
2018-10-21T19:06:18.822Z,73.10
2018-10-21T19:08:47.635Z,73.00
2018-10-21T19:11:16.565Z,72.80
2018-10-21T19:13:45.285Z,72.80
2018-10-21T19:16:14.166Z,73.00
2018-10-21T19:18:42.821Z,72.90
2018-10-21T19:21:11.563Z,73.10
2018-10-21T19:23:40.272Z,73.40
2018-10-21T19:26:09.004Z,73.40
2018-10-21T19:28:37.773Z,73.60
2018-10-21T19:31:06.587Z,73.70
2018-10-21T19:33:35.324Z,74.00
2018-10-21T19:36:04.129Z,74.10
2018-10-21T19:38:32.831Z,74.10
2018-10-21T19:41:01.554Z,74.10
2018-10-21T19:43:30.328Z,74.10
2018-10-21T19:45:59.024Z,74.40
2018-10-21T19:48:27.759Z,74.50
2018-10-21T19:50:56.569Z,74.70
2018-10-21T19:53:25.414Z,74.50
2018-10-21T19:55:54.144Z,74.70
2018-10-21T19:58:23.210Z,74.80
2018-10-21T20:00:51.952Z,75.00
2018-10-21T20:03:20.699Z,75.10
2018-10-21T20:05:49.386Z,75.00
2018-10-21T20:08:18.116Z,75.10
2018-10-21T20:10:46.813Z,75.20
2018-10-21T20:13:15.651Z,75.60
2018-10-21T20:15:44.372Z,75.70
2018-10-21T20:18:13.157Z,76.00
2018-10-21T20:20:41.833Z,76.40
2018-10-21T20:23:10.597Z,76.40
2018-10-21T20:25:39.521Z,76.50
2018-10-21T20:28:08.258Z,76.30
2018-10-21T20:30:36.975Z,76.60
2018-10-21T20:33:05.736Z,76.50
2018-10-21T20:35:34.476Z,76.50
2018-10-21T20:38:03.273Z,76.40
2018-10-21T20:40:32.155Z,77.00
2018-10-21T20:43:00.951Z,76.50
2018-10-21T20:45:29.742Z,76.50
2018-10-21T20:47:58.534Z,76.60
2018-10-21T20:50:27.205Z,76.90
2018-10-21T20:52:55.923Z,77.00
2018-10-21T20:55:24.690Z,76.90
2018-10-21T20:57:53.462Z,76.90
2018-10-21T21:00:22.258Z,76.90
2018-10-21T21:02:51.046Z,77.20
2018-10-21T21:05:19.795Z,77.40
2018-10-21T21:07:48.559Z,77.50
2018-10-21T21:10:17.346Z,77.50
2018-10-21T21:12:46.073Z,77.70
2018-10-21T21:15:14.797Z,77.80
2018-10-21T21:17:43.652Z,77.80
2018-10-21T21:20:12.465Z,78.00
2018-10-21T21:22:41.208Z,78.10
2018-10-21T21:25:09.980Z,78.10
2018-10-21T21:27:38.750Z,78.50
2018-10-21T21:30:07.986Z,77.90
2018-10-21T21:32:36.695Z,77.90
2018-10-21T21:35:06.565Z,77.80
2018-10-21T21:37:35.340Z,77.90
2018-10-21T21:40:10.416Z,78.20
2018-10-21T21:42:39.625Z,78.20
2018-10-21T21:45:08.816Z,78.10
2018-10-21T21:47:37.575Z,78.10
2018-10-21T21:50:06.903Z,78.10
2018-10-21T21:52:35.648Z,78.10
2018-10-21T21:55:04.869Z,78.30
2018-10-21T21:57:33.899Z,78.30
2018-10-21T22:00:02.694Z,78.10
2018-10-21T22:02:31.415Z,78.00
2018-10-21T22:05:00.216Z,78.40
2018-10-21T22:07:28.937Z,78.50
2018-10-21T22:09:57.749Z,78.10
2018-10-21T22:12:26.527Z,78.10
2018-10-21T22:14:55.457Z,78.30
2018-10-21T22:17:24.242Z,78.50
2018-10-21T22:19:53.014Z,78.60
2018-10-21T22:22:22.547Z,79.00
2018-10-21T22:24:51.288Z,79.00
2018-10-21T22:27:20.148Z,79.30
2018-10-21T22:29:48.947Z,79.30
2018-10-21T22:32:17.713Z,79.30
2018-10-21T22:34:46.447Z,79.30
2018-10-21T22:37:15.218Z,79.70
2018-10-21T22:39:43.999Z,79.80
2018-10-21T22:42:12.888Z,79.60
2018-10-21T22:44:41.598Z,79.40
2018-10-21T22:47:10.374Z,79.40
2018-10-21T22:49:40.113Z,79.50
2018-10-21T22:52:08.925Z,79.90
2018-10-21T22:54:37.772Z,79.60
2018-10-21T22:57:11.735Z,79.60
2018-10-21T22:59:40.543Z,80.00
2018-10-21T23:02:09.450Z,80.30
2018-10-21T23:04:38.302Z,80.30
2018-10-21T23:07:07.085Z,80.30
2018-10-21T23:09:35.835Z,80.50
2018-10-21T23:12:05.147Z,80.80
2018-10-21T23:14:33.849Z,80.70
2018-10-21T23:17:02.607Z,81.00
2018-10-21T23:19:45.232Z,81.10
2018-10-21T23:22:14.096Z,81.20
2018-10-21T23:24:42.807Z,81.00
2018-10-21T23:27:12.348Z,81.10
2018-10-21T23:29:41.974Z,81.40
2018-10-21T23:32:10.890Z,81.20
2018-10-21T23:34:39.731Z,82.10
2018-10-21T23:37:08.467Z,80.80
2018-10-21T23:39:37.199Z,80.90
2018-10-21T23:42:06.018Z,80.70
2018-10-21T23:44:34.773Z,80.60
2018-10-21T23:47:03.528Z,80.60
2018-10-21T23:49:32.212Z,80.80
2018-10-21T23:52:01.027Z,81.50
2018-10-21T23:54:29.722Z,81.60
2018-10-21T23:56:58.471Z,81.20
2018-10-21T23:59:27.271Z,81.40
